Time;durP1;ratioP1;P1;durP2;ratioP2;P2;SDS_P1;SDS_P2;PMS_P1;PMS_P2;Temp;Humidity;BMP_temperature;BMP_pressure;BME280_temperature;BME280_humidity;BME280_pressure;Samples;Min_cycle;Max_cycle;Signal;HPM_P1;HPM_P2
2022/01/31 00:01:05;;;;;;;14.57;4.67;;;;;;;3.68;70.75;101509.53;5048970;28;20107;-78
2022/01/31 00:03:33;;;;;;;10.90;4.60;;;;;;;3.65;70.90;101494.03;5047569;28;20035;-78
2022/01/31 00:05:59;;;;;;;15.57;4.33;;;;;;;3.69;70.76;101475.25;5047797;28;20055;-78
2022/01/31 00:08:24;;;;;;;13.47;4.43;;;;;;;3.68;70.50;101444.31;5049734;28;20029;-78
2022/01/31 00:10:50;;;;;;;14.83;4.80;;;;;;;3.70;70.82;101425.50;5046041;28;20409;-78
2022/01/31 00:13:23;;;;;;;12.10;4.50;;;;;;;3.72;70.69;101410.94;5047409;28;20041;-78
2022/01/31 00:15:54;;;;;;;11.70;4.00;;;;;;;3.71;70.81;101422.09;5048093;28;20087;-78
2022/01/31 00:18:20;;;;;;;17.80;5.20;;;;;;;3.73;70.90;101406.66;5049443;28;20044;-78
2022/01/31 00:20:45;;;;;;;15.33;4.57;;;;;;;3.70;70.79;101410.06;5048482;28;20279;-78
2022/01/31 00:23:10;;;;;;;15.03;4.60;;;;;;;3.72;70.92;101400.66;5049079;28;20067;-78
2022/01/31 00:25:36;;;;;;;16.53;4.13;;;;;;;3.73;70.79;101394.66;5048728;28;20032;-78
2022/01/31 00:28:01;;;;;;;12.03;4.40;;;;;;;3.70;71.40;101384.31;5049790;28;20480;-78
2022/01/31 00:30:26;;;;;;;17.73;5.03;;;;;;;3.74;70.76;101356.91;5048657;28;20025;-78
2022/01/31 00:32:52;;;;;;;16.23;4.53;;;;;;;3.73;71.44;101363.78;5046460;28;21945;-78
2022/01/31 00:35:17;;;;;;;12.53;4.53;;;;;;;3.72;71.41;101346.63;5049041;28;20054;-78
2022/01/31 00:37:42;;;;;;;15.10;4.63;;;;;;;3.75;71.57;101336.34;5048845;28;20071;-78
2022/01/31 00:40:09;;;;;;;14.07;5.43;;;;;;;3.75;71.94;101333.78;5048312;28;20056;-78
2022/01/31 00:42:35;;;;;;;18.73;5.33;;;;;;;3.73;72.02;101312.31;5049399;28;20035;-78
2022/01/31 00:45:12;;;;;;;9.53;3.80;;;;;;;3.77;71.86;101290.03;5049242;28;20087;-78
2022/01/31 00:47:41;;;;;;;12.83;4.17;;;;;;;3.76;71.74;101281.44;5048483;28;20090;-78
2022/01/31 00:50:09;;;;;;;15.20;4.80;;;;;;;3.77;72.34;101272.88;5047942;28;20025;-78
2022/01/31 00:52:36;;;;;;;15.77;4.50;;;;;;;3.80;71.91;101267.75;5048471;28;20731;-78
2022/01/31 00:55:02;;;;;;;13.17;4.63;;;;;;;3.79;72.30;101255.72;5048226;28;20025;-78
2022/01/31 00:57:28;;;;;;;11.43;4.37;;;;;;;3.83;72.76;101245.47;5051555;28;20053;-78
2022/01/31 00:59:53;;;;;;;17.23;5.03;;;;;;;3.78;74.12;101230.00;5052521;28;20120;-78
2022/01/31 01:02:19;;;;;;;18.20;4.53;;;;;;;3.74;74.77;101216.25;5052243;28;20052;-78
2022/01/31 01:04:44;;;;;;;13.70;4.47;;;;;;;3.72;75.55;101220.53;5051117;28;20052;-78
2022/01/31 01:07:09;;;;;;;18.30;4.73;;;;;;;3.65;75.69;101205.88;5052709;28;20388;-78
2022/01/31 01:09:34;;;;;;;13.77;4.50;;;;;;;3.65;76.13;101193.00;5050332;28;20060;-78
2022/01/31 01:12:00;;;;;;;15.73;4.20;;;;;;;3.63;76.17;101192.13;5049403;28;20247;-78
2022/01/31 01:14:25;;;;;;;15.03;4.53;;;;;;;3.63;76.52;101185.28;5053218;28;20027;-78
2022/01/31 01:16:51;;;;;;;11.63;4.40;;;;;;;3.58;77.07;101180.94;5052173;28;20040;-78
2022/01/31 01:19:16;;;;;;;14.73;4.23;;;;;;;3.58;77.19;101174.06;5052062;28;20025;-78
2022/01/31 01:21:41;;;;;;;15.23;4.70;;;;;;;3.56;77.76;101167.22;5048962;28;20031;-78
2022/01/31 01:24:07;;;;;;;16.67;4.53;;;;;;;3.53;78.42;101149.16;5052301;28;20139;-78
2022/01/31 01:26:32;;;;;;;12.30;4.17;;;;;;;3.53;78.58;101134.59;5054524;28;20040;-78
2022/01/31 01:28:57;;;;;;;19.67;4.93;;;;;;;3.50;78.91;101139.72;5051526;28;20021;-78
2022/01/31 01:31:23;;;;;;;16.90;4.50;;;;;;;3.48;79.50;101119.13;5049146;28;20444;-78
2022/01/31 01:33:48;;;;;;;19.13;5.00;;;;;;;3.47;79.67;101109.69;5052813;28;20033;-78
2022/01/31 01:36:14;;;;;;;12.20;4.27;;;;;;;3.43;80.00;101095.06;5052318;28;20437;-78
2022/01/31 01:38:39;;;;;;;15.77;4.50;;;;;;;3.43;80.25;101082.19;5051868;28;20037;-78
2022/01/31 01:41:04;;;;;;;13.90;4.40;;;;;;;3.44;80.38;101078.78;5051016;28;20040;-78
2022/01/31 01:43:30;;;;;;;14.20;4.23;;;;;;;3.43;80.55;101071.91;5048432;28;20025;-78
2022/01/31 01:45:57;;;;;;;13.80;4.50;;;;;;;3.42;80.88;101062.47;5051564;28;20041;-78
2022/01/31 01:48:23;;;;;;;14.20;4.13;;;;;;;3.42;81.02;101056.47;5051139;28;20418;-78
2022/01/31 01:50:49;;;;;;;14.80;4.03;;;;;;;3.43;81.04;101051.34;5049922;28;20465;-78
2022/01/31 01:53:15;;;;;;;13.57;4.20;;;;;;;3.45;81.53;101059.09;5050945;28;20041;-78
2022/01/31 01:55:43;;;;;;;12.40;4.27;;;;;;;3.46;81.84;101043.66;5050141;28;20048;-78
2022/01/31 01:58:15;;;;;;;14.93;4.60;;;;;;;3.51;81.53;101032.53;5048425;28;20098;-78
2022/01/31 02:00:50;;;;;;;16.27;4.10;;;;;;;3.51;82.23;101017.09;5050649;28;20029;-78
2022/01/31 02:03:17;;;;;;;12.27;3.93;;;;;;;3.52;81.21;101008.53;5050632;28;20063;-78
2022/01/31 02:05:43;;;;;;;15.83;3.93;;;;;;;3.56;81.79;101002.56;5049252;28;20032;-78
2022/01/31 02:08:11;;;;;;;16.27;4.23;;;;;;;3.54;82.63;100984.53;5046000;28;20056;-78
2022/01/31 02:10:36;;;;;;;15.37;4.07;;;;;;;3.55;82.57;100972.53;5051371;28;20095;-78
2022/01/31 02:13:07;;;;;;;16.73;4.03;;;;;;;3.58;82.69;100957.13;5050166;28;20471;-78
2022/01/31 02:15:33;;;;;;;12.90;4.10;;;;;;;3.61;83.00;100965.72;5050354;28;20037;-78
2022/01/31 02:17:58;;;;;;;13.83;4.43;;;;;;;3.63;83.47;100952.84;5047698;28;20087;-78
2022/01/31 02:20:24;;;;;;;9.07;3.90;;;;;;;3.64;83.14;100937.44;5051579;28;20052;-78
2022/01/31 02:22:49;;;;;;;10.07;3.90;;;;;;;3.65;83.60;100940.84;5049516;28;20071;-78
2022/01/31 02:25:15;;;;;;;14.13;4.00;;;;;;;3.67;84.03;100939.16;5050370;28;20502;-78
2022/01/31 02:27:40;;;;;;;14.53;4.03;;;;;;;3.67;84.04;100946.88;5051128;28;20455;-78
2022/01/31 02:30:08;;;;;;;13.53;4.30;;;;;;;3.67;84.47;100946.88;5049884;28;20051;-78
2022/01/31 02:32:34;;;;;;;18.73;4.03;;;;;;;3.67;84.45;100931.44;5046144;28;20491;-78
2022/01/31 02:34:59;;;;;;;11.20;3.90;;;;;;;3.68;84.75;100930.59;5050242;28;20115;-78
2022/01/31 02:37:25;;;;;;;8.50;3.73;;;;;;;3.71;84.73;100927.16;5050188;28;20017;-78
2022/01/31 02:39:50;;;;;;;9.27;3.90;;;;;;;3.72;84.69;100914.31;5048514;28;20021;-78
2022/01/31 02:42:16;;;;;;;14.07;4.20;;;;;;;3.76;85.05;100931.47;5048231;28;20539;-78
2022/01/31 02:44:43;;;;;;;12.13;4.90;;;;;;;3.76;85.18;100925.47;5049042;28;20027;-78
2022/01/31 02:47:22;;;;;;;9.23;4.23;;;;;;;3.78;85.25;100913.47;5049663;28;20111;-78
2022/01/31 02:49:58;;;;;;;9.70;4.30;;;;;;;3.85;85.28;100898.91;5050156;28;20060;-78
2022/01/31 02:52:25;;;;;;;11.87;4.90;;;;;;;3.87;85.40;100894.63;5048148;28;20037;-78
2022/01/31 02:54:51;;;;;;;10.27;4.03;;;;;;;3.87;85.20;100885.19;5048868;28;20029;-79
2022/01/31 02:57:16;;;;;;;8.30;3.63;;;;;;;3.90;85.20;100867.16;5049215;28;20028;-78
2022/01/31 02:59:41;;;;;;;8.50;3.40;;;;;;;3.95;85.28;100868.06;5049329;28;20106;-78
2022/01/31 03:02:07;;;;;;;9.37;3.73;;;;;;;3.96;85.75;100861.16;5049430;28;20486;-78
2022/01/31 03:04:32;;;;;;;7.13;3.47;;;;;;;4.01;85.53;100862.06;5048114;28;20071;-78
2022/01/31 03:06:58;;;;;;;7.57;3.87;;;;;;;4.04;85.65;100854.34;5048053;28;20485;-78
2022/01/31 03:09:23;;;;;;;6.90;4.43;;;;;;;4.03;85.90;100842.31;5048588;28;20040;-78
2022/01/31 03:11:49;;;;;;;6.47;3.73;;;;;;;4.05;85.96;100845.75;5049896;28;20075;-78
2022/01/31 03:14:16;;;;;;;6.03;3.80;;;;;;;4.05;86.08;100850.03;5047883;28;20067;-78
2022/01/31 03:16:43;;;;;;;8.10;4.10;;;;;;;4.08;85.93;100845.78;5047743;28;20020;-78
2022/01/31 03:19:09;;;;;;;11.03;4.40;;;;;;;4.10;86.17;100838.88;5047413;28;20108;-78
2022/01/31 03:21:35;;;;;;;9.47;3.87;;;;;;;4.13;86.55;100848.34;5047425;28;20128;-78
2022/01/31 03:24:00;;;;;;;7.83;3.80;;;;;;;4.16;86.66;100852.63;5048211;28;20053;-78
2022/01/31 03:26:25;;;;;;;12.17;4.03;;;;;;;4.24;86.86;100841.47;5046941;28;20384;-78
2022/01/31 03:28:53;;;;;;;11.10;3.80;;;;;;;4.25;86.62;100837.19;5048284;28;20079;-78
2022/01/31 03:31:18;;;;;;;12.30;4.20;;;;;;;4.33;86.65;100830.31;5047068;28;20025;-78
2022/01/31 03:33:46;;;;;;;12.60;3.90;;;;;;;4.34;86.74;100826.88;5046651;28;20430;-78
2022/01/31 03:36:11;;;;;;;10.43;3.60;;;;;;;4.37;86.86;100824.31;5046639;28;20039;-78
2022/01/31 03:38:40;;;;;;;13.20;2.97;;;;;;;4.42;86.39;100818.31;5047022;28;20029;-78
2022/01/31 03:41:07;;;;;;;10.20;3.30;;;;;;;4.48;86.26;100823.44;5044135;28;20032;-78
2022/01/31 03:43:32;;;;;;;13.80;3.22;;;;;;;4.51;86.33;100818.28;5048138;28;20465;-78
2022/01/31 03:45:58;;;;;;;11.60;2.70;;;;;;;4.63;85.80;100815.69;5048022;28;20032;-78
2022/01/31 03:48:24;;;;;;;8.43;2.50;;;;;;;4.67;85.58;100814.81;5046920;28;20373;-78
2022/01/31 03:50:50;;;;;;;18.05;3.20;;;;;;;4.69;85.41;100800.22;5046008;28;20029;-78
2022/01/31 03:53:15;;;;;;;11.07;2.57;;;;;;;4.69;85.60;100791.66;5047266;28;20032;-78
2022/01/31 03:55:40;;;;;;;10.40;2.45;;;;;;;4.71;85.44;100795.06;5046161;28;20032;-78
2022/01/31 03:58:06;;;;;;;8.20;1.77;;;;;;;4.72;84.93;100812.22;5047782;28;20029;-78
2022/01/31 04:00:31;;;;;;;10.02;2.05;;;;;;;4.85;84.46;100801.06;5048217;28;20079;-78
2022/01/31 04:02:56;;;;;;;13.15;2.13;;;;;;;4.78;85.15;100809.66;5046331;28;20357;-78
2022/01/31 04:05:22;;;;;;;8.23;2.50;;;;;;;4.77;84.52;100805.34;5045848;28;20112;-78
2022/01/31 04:07:47;;;;;;;9.40;1.98;;;;;;;4.93;83.28;100802.72;5046511;28;20036;-78
2022/01/31 04:10:12;;;;;;;13.45;2.33;;;;;;;4.94;83.33;100796.72;5048845;28;20024;-78
2022/01/31 04:12:37;;;;;;;11.83;2.47;;;;;;;5.05;82.40;100815.56;5048457;28;20017;-80
2022/01/31 04:15:03;;;;;;;15.40;2.20;;;;;;;5.04;82.15;100800.13;5046277;28;20028;-78
2022/01/31 04:17:31;;;;;;;9.93;2.00;;;;;;;5.03;82.39;100791.53;5046099;28;20028;-78
2022/01/31 04:19:56;;;;;;;11.05;2.08;;;;;;;5.01;82.04;100804.44;5047816;28;20025;-78
2022/01/31 04:22:25;;;;;;;13.45;2.00;;;;;;;5.03;82.18;100788.09;5045290;28;20052;-78
2022/01/31 04:24:54;;;;;;;13.27;2.05;;;;;;;5.11;81.43;100794.09;5045633;28;20025;-78
2022/01/31 04:27:20;;;;;;;14.77;2.13;;;;;;;5.13;81.32;100779.44;5047545;28;20025;-78
2022/01/31 04:29:47;;;;;;;12.00;1.88;;;;;;;5.19;80.32;100781.16;5047391;28;20370;-78
2022/01/31 04:32:13;;;;;;;12.63;2.05;;;;;;;5.13;80.76;100779.44;5046372;28;20116;-78
2022/01/31 04:34:38;;;;;;;7.65;1.50;;;;;;;5.08;80.88;100784.63;5045982;28;20120;-78
2022/01/31 04:37:04;;;;;;;11.57;1.65;;;;;;;5.07;80.47;100790.66;5046911;28;20391;-78
2022/01/31 04:39:31;;;;;;;15.15;2.17;;;;;;;5.12;80.25;100785.50;5047793;28;20025;-78
2022/01/31 04:41:56;;;;;;;8.73;1.65;;;;;;;5.21;80.05;100784.59;5047469;28;20534;-78
2022/01/31 04:44:22;;;;;;;9.50;1.60;;;;;;;5.20;78.64;100782.88;5048757;28;20021;-78
2022/01/31 04:46:51;;;;;;;9.95;1.52;;;;;;;5.21;78.28;100769.97;5047767;28;20478;-78
2022/01/31 04:49:17;;;;;;;8.05;1.60;;;;;;;5.27;77.44;100788.00;5046285;28;20488;-78
2022/01/31 04:51:43;;;;;;;7.97;1.60;;;;;;;5.24;77.90;100764.81;5048651;28;20104;-78
2022/01/31 04:54:08;;;;;;;8.02;1.70;;;;;;;5.22;77.61;100775.97;5048598;28;21575;-78
2022/01/31 04:56:35;;;;;;;12.73;2.00;;;;;;;5.23;77.23;100769.94;5047272;28;20104;-78
2022/01/31 04:59:01;;;;;;;10.80;1.80;;;;;;;5.24;77.34;100829.28;5043953;28;20024;-78
2022/01/31 05:01:27;;;;;;;11.43;1.90;;;;;;;5.28;76.49;100779.41;5047641;28;20078;-78
2022/01/31 05:03:52;;;;;;;9.02;1.60;;;;;;;5.21;76.96;100766.53;5045626;28;20021;-78
2022/01/31 05:06:21;;;;;;;10.73;1.65;;;;;;;5.20;76.91;100777.72;5045911;28;20499;-78
2022/01/31 05:08:47;;;;;;;9.15;2.00;;;;;;;5.21;76.31;100769.97;5047567;28;20028;-78
2022/01/31 05:11:13;;;;;;;8.35;1.60;;;;;;;5.15;76.49;100763.13;5046794;28;20025;-78
2022/01/31 05:13:38;;;;;;;12.05;1.60;;;;;;;5.14;76.08;100757.94;5048240;28;20032;-78
2022/01/31 05:16:04;;;;;;;10.75;1.52;;;;;;;5.10;76.46;100751.13;5047758;28;20095;-78
2022/01/31 05:18:30;;;;;;;11.27;1.30;;;;;;;5.19;76.14;100757.97;5046998;28;20021;-78
2022/01/31 05:20:56;;;;;;;11.38;1.45;;;;;;;5.11;76.29;100743.38;5046381;28;20040;-78
2022/01/31 05:23:21;;;;;;;12.93;1.80;;;;;;;5.13;75.46;100748.50;5048690;28;20037;-78
2022/01/31 05:25:46;;;;;;;9.65;1.42;;;;;;;5.15;74.69;100741.63;5047672;28;20021;-78
2022/01/31 05:28:11;;;;;;;8.38;1.60;;;;;;;5.15;75.09;100736.47;5048250;28;20040;-78
2022/01/31 05:30:37;;;;;;;11.93;1.55;;;;;;;5.08;75.33;100732.22;5048906;28;20017;-78
2022/01/31 05:33:03;;;;;;;8.48;1.40;;;;;;;5.09;75.63;100724.47;5050869;28;20033;-78
2022/01/31 05:35:28;;;;;;;12.57;1.33;;;;;;;5.14;74.71;100714.13;5067028;28;20499;-78
2022/01/31 05:37:53;;;;;;;10.73;1.77;;;;;;;5.08;74.77;100721.91;5048350;28;20025;-78
2022/01/31 05:40:19;;;;;;;9.90;1.58;;;;;;;5.16;73.85;100704.66;5041768;28;20029;-78
2022/01/31 05:42:44;;;;;;;10.50;1.65;;;;;;;5.09;74.17;100698.66;5045256;28;20025;-78
2022/01/31 05:45:09;;;;;;;7.10;1.45;;;;;;;5.15;74.06;100695.19;5050854;28;20108;-78
2022/01/31 05:47:35;;;;;;;9.60;1.60;;;;;;;5.12;75.04;100688.34;5052304;28;20106;-78
2022/01/31 05:50:02;;;;;;;8.85;1.42;;;;;;;5.09;75.85;100698.66;5046975;28;20404;-78
2022/01/31 05:52:27;;;;;;;7.53;1.58;;;;;;;5.05;77.25;100702.13;5049426;28;20017;-78
2022/01/31 05:54:53;;;;;;;9.98;1.77;;;;;;;5.00;77.18;100709.88;5048410;28;20484;-78
2022/01/31 05:57:18;;;;;;;9.02;1.38;;;;;;;5.06;77.09;100736.53;5048862;28;20074;-78
2022/01/31 05:59:43;;;;;;;11.13;1.80;;;;;;;5.04;77.74;100740.81;5050153;28;20025;-78
2022/01/31 07:40:04;;;;;;;11.73;2.10;;;;;;;3.95;82.28;100751.34;5089701;28;20344;-77
2022/01/31 07:42:29;;;;;;;14.40;1.90;;;;;;;3.87;83.42;100764.22;5096789;28;20541;-78
2022/01/31 07:44:56;;;;;;;17.30;2.30;;;;;;;3.79;83.90;100768.50;5086952;28;20032;-77
2022/01/31 07:47:22;;;;;;;11.87;2.20;;;;;;;3.78;83.89;100741.91;5086042;28;20123;-78
2022/01/31 07:49:47;;;;;;;10.57;2.00;;;;;;;3.78;83.86;100747.06;5088362;28;20535;-78
2022/01/31 07:52:12;;;;;;;12.17;2.20;;;;;;;3.75;84.15;100729.06;5082733;28;20047;-78
2022/01/31 07:54:39;;;;;;;8.87;1.63;;;;;;;3.75;84.30;100729.06;5081018;28;20083;-78
2022/01/31 07:57:05;;;;;;;11.90;1.70;;;;;;;3.77;84.79;100729.91;5091712;28;20028;-79
2022/01/31 07:59:30;;;;;;;9.87;1.63;;;;;;;3.77;84.39;100737.63;5085472;28;20058;-78
2022/01/31 08:01:55;;;;;;;15.20;2.07;;;;;;;3.78;84.71;100736.75;5085383;28;20483;-78
2022/01/31 08:04:21;;;;;;;12.57;1.70;;;;;;;3.80;84.21;100737.63;5085759;28;20025;-78
2022/01/31 08:06:46;;;;;;;16.03;1.93;;;;;;;3.75;84.61;100731.63;5084128;28;20025;-78
2022/01/31 08:09:11;;;;;;;16.87;2.37;;;;;;;3.78;84.92;100759.91;5087984;28;20025;-79
2022/01/31 08:11:37;;;;;;;10.53;1.67;;;;;;;3.82;84.36;100744.50;5084709;28;20020;-78
2022/01/31 08:14:07;;;;;;;15.27;1.90;;;;;;;3.77;85.06;100742.75;5086522;28;20046;-78
2022/01/31 08:16:33;;;;;;;17.73;2.10;;;;;;;3.84;84.10;100742.78;5084945;28;20020;-78
2022/01/31 08:18:59;;;;;;;12.47;1.93;;;;;;;3.83;84.17;100735.91;5082895;28;20249;-79
2022/01/31 08:21:25;;;;;;;10.80;2.03;;;;;;;3.83;84.62;100765.09;5077680;28;20111;-80
2022/01/31 08:23:51;;;;;;;13.93;1.97;;;;;;;3.85;84.40;100745.34;5078805;28;20566;-79
2022/01/31 08:26:16;;;;;;;18.67;2.30;;;;;;;3.88;84.06;100777.97;5076412;28;20021;-79
2022/01/31 08:28:58;;;;;;;17.03;1.97;;;;;;;3.89;84.11;100746.22;5079384;28;20044;-79
2022/01/31 08:31:37;;;;;;;16.67;3.10;;;;;;;3.92;83.82;100766.81;5080779;28;20188;-80
2022/01/31 08:34:19;;;;;;;13.17;1.77;;;;;;;3.88;84.21;100754.78;5081421;28;20039;-80
2022/01/31 08:36:44;;;;;;;20.80;3.00;;;;;;;3.87;84.66;100753.91;5079545;28;20032;-80
2022/01/31 08:39:17;;;;;;;18.37;2.47;;;;;;;3.98;83.56;100755.66;5081091;28;20048;-79
2022/01/31 08:41:44;;;;;;;16.77;2.13;;;;;;;3.93;84.17;100743.63;5079791;28;20042;-79
2022/01/31 08:44:11;;;;;;;15.63;2.20;;;;;;;3.90;84.17;100742.78;5081484;28;20032;-79
2022/01/31 08:46:41;;;;;;;18.37;2.20;;;;;;;3.94;84.84;100767.66;5078174;28;20111;-80
2022/01/31 08:49:08;;;;;;;26.03;2.83;;;;;;;3.93;84.32;100764.22;5079129;28;20189;-79
2022/01/31 08:51:34;;;;;;;18.23;2.47;;;;;;;3.95;84.36;100757.38;5063194;28;20032;-79
2022/01/31 08:54:00;;;;;;;16.53;2.53;;;;;;;3.97;84.48;100779.69;5065422;28;20040;-80
2022/01/31 08:56:25;;;;;;;13.27;2.30;;;;;;;4.03;83.31;100762.50;5062167;28;20028;-80
2022/01/31 08:58:51;;;;;;;13.13;2.20;;;;;;;3.99;84.37;100778.81;5062871;28;20033;-79
2022/01/31 09:01:21;;;;;;;13.17;2.03;;;;;;;3.98;84.16;100743.63;5066375;28;20033;-79
2022/01/31 09:06:19;;;;;;;19.13;2.90;;;;;;;4.16;82.81;100755.66;5062812;28;20044;-81
2022/01/31 09:08:44;;;;;;;13.43;1.87;;;;;;;4.13;82.75;100752.19;5064741;28;20531;-81
2022/01/31 09:11:10;;;;;;;14.97;2.03;;;;;;;4.16;83.02;100757.34;5065484;28;20116;-80
2022/01/31 09:13:36;;;;;;;9.83;1.97;;;;;;;4.12;82.50;100763.34;5066020;28;20515;-81
2022/01/31 09:16:02;;;;;;;15.97;1.70;;;;;;;4.16;83.14;100765.09;5065139;28;20039;-81
2022/01/31 09:18:28;;;;;;;15.37;1.53;;;;;;;4.22;82.33;100749.63;5062021;28;20064;-81
2022/01/31 09:20:53;;;;;;;15.40;2.10;;;;;;;4.09;82.89;100754.81;5066183;28;20467;-81
2022/01/31 09:23:19;;;;;;;15.07;2.07;;;;;;;4.07;83.32;100781.38;5063839;28;20036;-81
2022/01/31 09:25:46;;;;;;;12.87;2.30;;;;;;;3.99;84.18;100767.66;5063714;28;20032;-81
2022/01/31 09:28:11;;;;;;;10.83;2.30;;;;;;;4.01;83.95;100760.81;5062295;28;20032;-80
2022/01/31 09:30:38;;;;;;;19.70;2.13;;;;;;;3.97;84.19;100785.66;5063702;28;20039;-80
2022/01/31 09:33:04;;;;;;;21.27;2.97;;;;;;;3.97;84.27;100769.38;5062239;28;20122;-82
2022/01/31 09:35:30;;;;;;;15.67;2.23;;;;;;;3.94;84.35;100775.38;5062355;28;20028;-81
2022/01/31 09:37:55;;;;;;;16.13;2.13;;;;;;;4.01;83.47;100774.53;5062498;28;20048;-82
2022/01/31 09:40:23;;;;;;;20.77;3.23;;;;;;;3.97;84.18;100789.97;5061962;28;20475;-82
2022/01/31 09:43:23;;;;;;;21.90;3.03;;;;;;;3.90;84.52;100792.53;5062267;28;20024;-82
2022/01/31 09:48:37;;;;;;;13.40;2.33;;;;;;;3.97;83.59;100832.00;5064938;28;20043;-82
2022/01/31 09:51:18;;;;;;;19.07;3.47;;;;;;;3.94;84.35;100827.72;5058851;28;20031;-83
2022/01/31 09:53:50;;;;;;;15.50;2.60;;;;;;;3.86;84.29;100803.69;5062131;28;20071;-82
2022/01/31 09:56:18;;;;;;;;;;;;;;;3.92;83.95;100831.16;5064907;28;20028;-83
2022/01/31 09:58:44;;;;;;;23.03;3.33;;;;;;;3.91;84.11;100816.56;5066071;28;19932;-84
2022/01/31 10:01:12;;;;;;;27.03;3.40;;;;;;;3.93;83.94;100810.56;5064424;28;20021;-82
2022/01/31 10:03:46;;;;;;;31.10;3.60;;;;;;;3.91;84.41;100816.56;5062885;28;20127;-82
2022/01/31 10:06:36;;;;;;;28.03;3.27;;;;;;;3.84;84.71;100841.44;5066537;28;20468;-83
2022/01/31 10:09:07;;;;;;;23.27;4.33;;;;;;;3.84;85.42;100845.72;5064839;28;20476;-84
2022/01/31 10:11:39;;;;;;;21.80;3.25;;;;;;;3.91;84.53;100826.88;5065536;28;20052;-82
2022/01/31 10:16:58;;;;;;;24.63;3.37;;;;;;;3.85;85.69;100852.59;5064598;28;20475;-84
2022/01/31 10:19:23;;;;;;;26.53;3.27;;;;;;;3.83;85.22;100850.00;5065838;28;20037;-82
2022/01/31 10:21:53;;;;;;;25.33;3.37;;;;;;;3.83;85.44;100850.00;5065897;28;20032;-83
2022/01/31 10:24:19;;;;;;;24.30;3.97;;;;;;;3.84;85.15;100866.31;5061581;28;20094;-83
2022/01/31 10:26:44;;;;;;;22.63;3.33;;;;;;;3.85;85.69;100875.75;5064609;28;20772;-83
2022/01/31 10:29:14;;;;;;;31.87;3.80;;;;;;;3.87;85.35;100869.72;5061921;28;20037;-83
2022/01/31 10:31:53;;;;;;;28.27;3.80;;;;;;;3.95;84.35;100855.19;5063140;28;20040;-85
2022/01/31 10:34:20;;;;;;;29.67;3.60;;;;;;;3.96;84.15;100868.91;5061273;28;20131;-85
2022/01/31 10:36:45;;;;;;;29.73;3.67;;;;;;;3.99;84.81;100865.50;5057892;28;20070;-83
2022/01/31 10:43:13;;;;;;;22.23;3.63;;;;;;;4.01;83.83;100905.81;5064216;28;20076;-83
2022/01/31 10:51:23;;;;;;;31.30;4.50;;;;;;;4.04;83.21;100916.13;5063862;28;20105;-85
2022/01/31 10:53:22;;;;;;;27.50;3.28;;;;;;;3.99;84.27;100924.69;5071237;28;20047;-83
2022/01/31 10:55:56;;;;;;;26.97;3.40;;;;;;;4.02;83.61;100916.94;5062619;28;20028;-84
2022/01/31 10:58:21;;;;;;;27.27;3.93;;;;;;;4.02;83.18;100907.53;5058099;28;20032;-82
2022/01/31 11:00:46;;;;;;;32.27;4.97;;;;;;;4.00;84.51;100918.69;5062218;28;20093;-84
2022/01/31 11:03:28;;;;;;;27.40;4.20;;;;;;;4.01;84.29;100917.84;5064660;28;20083;-84
2022/01/31 11:05:54;;;;;;;33.00;3.70;;;;;;;4.08;83.45;100912.72;5063985;28;20044;-82
2022/01/31 11:08:20;;;;;;;31.83;3.70;;;;;;;4.08;82.72;100912.72;5063250;28;20494;-84
2022/01/31 11:10:46;;;;;;;20.73;4.17;;;;;;;4.10;82.62;100923.84;5060635;28;20036;-84
2022/01/31 11:13:13;;;;;;;25.90;3.47;;;;;;;4.07;83.18;100946.16;5060533;28;20388;-85
2022/01/31 11:15:39;;;;;;;25.80;4.40;;;;;;;4.09;82.58;100965.03;5061362;28;20036;-84
2022/01/31 11:18:06;;;;;;;25.20;3.83;;;;;;;4.10;82.73;100949.59;5061029;28;20063;-84
2022/01/31 11:20:33;;;;;;;31.07;4.30;;;;;;;4.03;83.66;100937.56;5059283;28;20032;-84
2022/01/31 11:22:59;;;;;;;22.83;4.17;;;;;;;3.99;83.08;100955.59;5061150;28;20064;-84
2022/01/31 11:25:28;;;;;;;29.57;4.23;;;;;;;3.96;84.11;100979.56;5059718;28;20062;-82
2022/01/31 11:27:57;;;;;;;21.80;3.20;;;;;;;3.89;83.52;100955.53;5062146;28;20032;-82
2022/01/31 11:30:23;;;;;;;27.10;3.50;;;;;;;3.87;83.96;100964.97;5060640;28;20044;-83
2022/01/31 11:32:49;;;;;;;29.17;3.73;;;;;;;3.87;83.90;100959.81;5060660;28;20048;-82
2022/01/31 11:35:14;;;;;;;20.60;3.53;;;;;;;3.88;84.02;100974.41;5059693;28;20024;-83
2022/01/31 11:37:40;;;;;;;19.83;2.97;;;;;;;3.84;84.42;100992.41;5060632;28;20082;-85
2022/01/31 11:40:09;;;;;;;23.23;3.50;;;;;;;3.86;84.52;100957.25;5057266;28;20121;-85
2022/01/31 11:42:35;;;;;;;18.63;2.73;;;;;;;3.82;84.62;100950.38;5061150;28;20581;-85
2022/01/31 11:45:34;;;;;;;25.07;4.03;;;;;;;3.87;84.19;100966.69;5059053;28;20029;-85
2022/01/31 11:48:04;;;;;;;23.87;3.50;;;;;;;3.78;85.17;100963.22;5057746;28;20139;-85
2022/01/31 11:50:30;;;;;;;30.40;4.53;;;;;;;3.83;84.90;100973.53;5059248;28;20036;-85
2022/01/31 11:53:01;;;;;;;25.70;3.33;;;;;;;3.78;85.62;100970.09;5063085;28;20557;-84
2022/01/31 11:55:31;;;;;;;31.53;4.00;;;;;;;3.79;85.58;100972.66;5061638;28;20036;-86
2022/01/31 11:57:57;;;;;;;27.67;3.93;;;;;;;3.82;85.50;100981.25;5061975;28;20037;-85
2022/01/31 12:00:29;;;;;;;21.13;3.73;;;;;;;3.84;85.51;100987.25;5062932;28;20033;-84
2022/01/31 12:02:56;;;;;;;;;;;;;;;3.90;85.69;101013.03;5063296;28;20537;-84
2022/01/31 12:05:23;;;;;;;29.47;4.17;;;;;;;3.83;86.01;101000.97;5061343;28;19916;-84
2022/01/31 12:08:06;;;;;;;24.70;4.10;;;;;;;3.86;85.32;101003.56;5059517;28;20056;-86
2022/01/31 12:10:38;;;;;;;29.23;3.47;;;;;;;3.88;84.71;100997.56;5058762;28;20040;-84
2022/01/31 12:13:18;;;;;;;29.80;5.23;;;;;;;3.94;84.69;100979.59;5060547;28;20033;-83
2022/01/31 12:24:20;;;;;;;24.53;3.20;;;;;;;4.01;84.34;101002.78;5061123;28;20047;-85
2022/01/31 12:26:52;;;;;;;25.23;3.83;;;;;;;3.98;85.11;100983.03;5064603;28;20064;-83
2022/01/31 12:29:19;;;;;;;;;;;;;;;4.05;84.59;101001.94;5065102;28;20021;-85
2022/01/31 12:31:54;;;;;;;30.97;3.93;;;;;;;4.03;84.52;100996.78;5066204;28;19952;-86
2022/01/31 12:34:22;;;;;;;28.97;4.43;;;;;;;4.00;84.63;101011.38;5066281;28;20474;-86
2022/01/31 12:36:53;;;;;;;31.13;4.57;;;;;;;4.03;84.28;101014.81;5063809;28;20111;-85
2022/01/31 12:39:31;;;;;;;28.17;4.37;;;;;;;3.99;84.76;101020.78;5062767;28;20112;-84
2022/01/31 12:42:03;;;;;;;24.03;3.57;;;;;;;4.00;84.60;101004.50;5064825;28;20055;-85
2022/01/31 12:44:29;;;;;;;28.63;4.20;;;;;;;3.94;85.45;101010.47;5067095;28;20024;-84
2022/01/31 12:47:06;;;;;;;27.30;4.00;;;;;;;4.00;84.54;101039.69;5063807;28;20415;-85
2022/01/31 12:49:31;;;;;;;25.83;3.60;;;;;;;3.97;84.45;101025.06;5065015;28;20517;-84
2022/01/31 12:52:07;;;;;;;26.50;3.80;;;;;;;3.91;85.48;101037.94;5065265;28;20032;-86
2022/01/31 12:54:36;;;;;;;29.73;5.07;;;;;;;3.93;85.68;101051.63;5063524;28;20035;-83
2022/01/31 12:57:07;;;;;;;34.37;4.67;;;;;;;3.95;85.84;101032.78;5063580;28;20029;-84
2022/01/31 12:59:33;;;;;;;28.58;4.53;;;;;;;3.99;85.18;101046.53;5066544;28;20046;-86
2022/01/31 13:02:07;;;;;;;35.40;4.57;;;;;;;3.94;85.57;101046.50;5063208;28;20171;-86
2022/01/31 13:04:32;;;;;;;28.23;4.13;;;;;;;4.02;85.28;101055.97;5063342;28;20028;-84
2022/01/31 13:07:00;;;;;;;25.63;4.33;;;;;;;4.02;85.20;101067.16;5064637;28;20028;-85
2022/01/31 13:09:31;;;;;;;23.77;3.77;;;;;;;4.04;85.11;101075.75;5065095;28;20098;-84
2022/01/31 13:11:58;;;;;;;25.08;4.30;;;;;;;4.06;85.39;101050.00;5064925;28;20036;-85
2022/01/31 13:14:27;;;;;;;32.23;4.07;;;;;;;4.08;85.79;101050.84;5065371;28;20032;-84
2022/01/31 13:16:59;;;;;;;37.53;5.67;;;;;;;4.09;85.74;101065.44;5065424;28;20021;-83
2022/01/31 13:19:26;;;;;;;31.97;4.63;;;;;;;4.08;86.05;101051.75;5060908;28;20021;-84
2022/01/31 13:21:53;;;;;;;35.60;4.47;;;;;;;4.09;85.56;101068.91;5064801;28;20518;-83
2022/01/31 13:24:19;;;;;;;43.43;5.80;;;;;;;4.12;85.16;101100.66;5066794;28;20076;-84
2022/01/31 13:26:55;;;;;;;36.03;4.80;;;;;;;4.09;85.47;101089.50;5064493;28;20481;-84
2022/01/31 13:29:34;;;;;;;34.63;4.37;;;;;;;4.09;85.23;101084.34;5061724;28;20506;-85
2022/01/31 13:32:12;;;;;;;36.47;4.90;;;;;;;4.13;85.10;101081.78;5062278;28;20063;-84